Time;durP1;ratioP1;P1;durP2;ratioP2;P2;SDS_P1;SDS_P2;PMS_P1;PMS_P2;Temp;Humidity;BMP_temperature;BMP_pressure;BME280_temperature;BME280_humidity;BME280_pressure;Samples;Min_cycle;Max_cycle;Signal;HPM_P1;HPM_P2
2022/05/25 00:00:27;;;;;;;8.30;7.60;;;;;;;16.52;84.33;100009.42;108433;1276;23624;-79
2022/05/25 00:03:08;;;;;;;8.80;7.90;;;;;;;16.53;84.35;100003.68;108437;1273;21967;-78
2022/05/25 00:05:38;;;;;;;10.10;8.50;;;;;;;16.55;84.27;100000.75;108818;1264;22854;-78
2022/05/25 00:08:11;;;;;;;;;;;;;;;16.55;84.04;99997.35;109009;1267;22324;-78
2022/05/25 00:10:41;;;;;;;9.40;7.80;;;;;;;16.49;84.29;99997.74;109189;1267;22001;-79
2022/05/25 00:13:10;;;;;;;9.40;8.10;;;;;;;16.47;84.23;99997.89;109163;1267;22421;-78
2022/05/25 00:15:43;;;;;;;8.40;7.70;;;;;;;16.50;84.23;100000.13;109124;1267;22220;-79
2022/05/25 00:18:13;;;;;;;7.50;6.80;;;;;;;16.52;83.92;100006.06;108829;1267;22003;-79
2022/05/25 00:20:43;;;;;;;7.90;7.20;;;;;;;16.54;83.73;100012.08;108988;1267;23588;-79
2022/05/25 00:23:12;;;;;;;8.00;7.30;;;;;;;16.56;83.69;100014.36;108836;1267;21974;-77
2022/05/25 00:25:41;;;;;;;9.90;7.10;;;;;;;16.58;83.51;100011.42;108637;1270;21981;-77
2022/05/25 00:28:13;;;;;;;8.00;7.20;;;;;;;16.59;83.11;100011.67;108820;1270;23665;-79
2022/05/25 00:30:45;;;;;;;9.00;7.10;;;;;;;16.59;83.05;100017.55;108491;1273;23075;-78
2022/05/25 00:33:14;;;;;;;8.10;7.40;;;;;;;16.61;83.17;100011.22;108457;1273;22013;-79
2022/05/25 00:35:45;;;;;;;7.90;6.10;;;;;;;16.62;82.83;100009.11;108125;1279;22021;-78
2022/05/25 00:38:14;;;;;;;11.70;7.50;;;;;;;16.61;82.62;100008.88;108217;1280;23717;-78
2022/05/25 00:40:46;;;;;;;;;;;;;;;16.61;82.55;100010.23;108130;1279;21975;-79
2022/05/25 00:43:19;;;;;;;7.90;7.10;;;;;;;16.55;82.78;100017.45;108096;1279;22990;-78
2022/05/25 00:45:55;;;;;;;8.90;7.60;;;;;;;16.52;82.76;100019.44;108089;1280;23095;-80
2022/05/25 00:48:38;;;;;;;8.00;7.10;;;;;;;16.52;82.56;100019.92;107962;1280;23095;-78
2022/05/25 00:51:21;;;;;;;8.00;7.30;;;;;;;16.52;82.38;100018.00;108375;1279;21996;-79
2022/05/25 00:54:02;;;;;;;6.90;6.10;;;;;;;16.52;82.31;100021.73;108466;1273;22053;-78
2022/05/25 00:56:34;;;;;;;12.10;7.10;;;;;;;16.53;82.15;100025.91;108530;1273;22087;-78
2022/05/25 00:59:14;;;;;;;7.80;7.10;;;;;;;16.55;81.89;100023.69;108386;1276;23076;-78
2022/05/25 01:01:44;;;;;;;8.00;6.80;;;;;;;16.55;81.76;100026.52;108528;1273;22865;-78
2022/05/25 01:04:15;;;;;;;8.70;7.80;;;;;;;16.56;81.60;100031.55;108494;1273;21997;-79
2022/05/25 01:07:28;;;;;;;8.40;7.60;;;;;;;16.57;81.61;100036.55;108827;1268;22021;-78
2022/05/25 01:10:14;;;;;;;9.40;7.30;;;;;;;16.55;81.36;100044.35;108381;1279;21982;-78
2022/05/25 01:13:54;;;;;;;8.60;7.60;;;;;;;16.54;81.25;100052.98;108320;1279;24058;-78
2022/05/25 01:16:46;;;;;;;9.20;7.50;;;;;;;16.51;81.17;100059.08;108057;1283;21995;-79
2022/05/25 01:19:42;;;;;;;9.70;7.70;;;;;;;16.49;81.24;100062.48;108186;1279;22690;-79
2022/05/25 01:22:37;;;;;;;7.80;7.00;;;;;;;16.48;81.15;100064.62;108226;1279;23161;-78
2022/05/25 01:25:29;;;;;;;8.00;7.20;;;;;;;16.47;81.01;100067.73;108331;1279;22040;-78
2022/05/25 01:28:14;;;;;;;9.00;7.60;;;;;;;16.46;80.88;100071.05;108406;1274;22194;-78
2022/05/25 01:30:51;;;;;;;8.80;7.30;;;;;;;16.45;80.89;100072.47;108558;1274;21981;-79
2022/05/25 01:33:40;;;;;;;10.80;6.60;;;;;;;16.44;80.67;100074.32;108485;1275;21989;-78
2022/05/25 01:36:26;;;;;;;7.30;6.60;;;;;;;16.43;80.51;100074.27;108577;1275;21985;-78
2022/05/25 01:39:07;;;;;;;8.20;7.30;;;;;;;16.43;80.33;100075.76;108399;1276;23014;-78
2022/05/25 01:42:05;;;;;;;7.90;6.80;;;;;;;16.41;80.23;100077.58;108709;1271;23132;-78
2022/05/25 01:44:44;;;;;;;7.80;6.60;;;;;;;16.38;80.14;100076.98;108791;1271;22058;-78
2022/05/25 01:47:14;;;;;;;8.40;7.10;;;;;;;16.36;80.19;100078.39;108772;1270;23593;-79
2022/05/25 01:50:01;;;;;;;6.70;6.10;;;;;;;16.35;80.09;100077.61;108735;1270;22408;-78
2022/05/25 01:52:42;;;;;;;7.20;6.50;;;;;;;16.33;79.92;100077.90;109246;1264;21986;-79
2022/05/25 01:55:29;;;;;;;7.20;6.50;;;;;;;16.31;79.83;100079.96;109027;1267;24299;-78
2022/05/25 01:58:14;;;;;;;7.60;6.40;;;;;;;16.29;79.68;100085.87;109126;1267;23423;-79
2022/05/25 02:00:52;;;;;;;6.40;5.90;;;;;;;16.29;79.69;100096.05;109013;1263;23051;-79
2022/05/25 02:06:25;;;;;;;6.90;6.30;;;;;;;16.27;79.39;100103.52;109284;1264;23628;-79
2022/05/25 02:09:12;;;;;;;7.60;6.50;;;;;;;16.25;79.36;100099.17;109492;1264;24414;-78
2022/05/25 02:11:57;;;;;;;8.00;6.30;;;;;;;16.23;79.27;100099.80;109162;1267;23616;-79
2022/05/25 02:14:51;;;;;;;7.00;6.30;;;;;;;16.21;78.98;100098.05;108466;1273;23583;-79
2022/05/25 02:18:01;;;;;;;7.20;6.50;;;;;;;16.16;78.89;100090.64;108653;1273;23696;-79
2022/05/25 02:20:55;;;;;;;7.30;6.50;;;;;;;16.14;78.97;100089.70;108428;1273;22173;-79
2022/05/25 02:24:33;;;;;;;7.50;6.90;;;;;;;16.13;78.91;100088.15;108492;1273;22099;-80
2022/05/25 02:27:20;;;;;;;8.30;6.00;;;;;;;16.11;79.02;100091.08;107930;1285;22274;-78
2022/05/25 02:29:56;;;;;;;6.70;6.10;;;;;;;16.10;79.02;100091.35;107922;1283;23748;-80
2022/05/25 02:32:53;;;;;;;7.00;6.40;;;;;;;16.10;78.78;100094.68;108053;1282;23650;-79
2022/05/25 02:35:25;;;;;;;8.40;7.40;;;;;;;16.10;78.79;100093.65;108123;1282;22042;-79
2022/05/25 02:38:02;;;;;;;9.40;7.00;;;;;;;16.10;78.67;100087.46;107757;1285;23729;-80
2022/05/25 02:40:43;;;;;;;7.80;7.10;;;;;;;16.10;78.70;100089.95;107493;1285;23079;-79
2022/05/25 02:43:15;;;;;;;9.70;7.30;;;;;;;16.09;78.60;100085.83;107670;1285;22791;-79
2022/05/25 02:45:46;;;;;;;8.30;7.50;;;;;;;16.09;78.27;100085.84;107813;1282;22600;-78
2022/05/25 02:48:17;;;;;;;8.80;7.80;;;;;;;16.08;78.18;100081.33;107979;1282;22011;-79
2022/05/25 02:50:47;;;;;;;10.90;8.80;;;;;;;16.09;78.41;100080.88;107968;1282;23260;-78
2022/05/25 02:53:16;;;;;;;18.40;10.60;;;;;;;16.09;78.28;100088.29;107979;1282;23114;-78
2022/05/25 02:55:48;;;;;;;9.50;7.50;;;;;;;16.09;78.22;100096.37;108130;1279;22073;-79
2022/05/25 02:58:18;;;;;;;9.60;7.90;;;;;;;16.08;78.15;100095.79;108889;1267;21984;-78
2022/05/25 03:00:47;;;;;;;7.70;6.90;;;;;;;16.07;78.08;100103.54;108956;1267;22747;-78
2022/05/25 03:03:17;;;;;;;9.20;6.70;;;;;;;16.05;78.09;100106.91;108969;1267;22207;-78
2022/05/25 03:05:47;;;;;;;8.40;7.70;;;;;;;16.06;78.21;100105.47;108889;1267;21976;-78
2022/05/25 03:08:17;;;;;;;8.30;7.50;;;;;;;16.05;78.13;100100.60;108953;1267;22043;-78
2022/05/25 03:10:47;;;;;;;8.20;7.40;;;;;;;16.05;78.14;100108.75;108806;1270;21993;-79
2022/05/25 03:13:16;;;;;;;9.10;8.20;;;;;;;16.04;78.08;100115.48;108932;1268;22046;-78
2022/05/25 03:15:47;;;;;;;10.60;7.70;;;;;;;16.02;78.08;100121.51;108648;1273;23622;-79
2022/05/25 03:18:19;;;;;;;10.00;9.10;;;;;;;16.00;78.13;100123.56;108722;1273;21998;-77
2022/05/25 03:20:51;;;;;;;10.40;8.10;;;;;;;15.99;77.98;100127.29;108761;1273;23804;-78
2022/05/25 03:23:20;;;;;;;10.50;7.90;;;;;;;15.96;77.79;100130.29;108807;1271;22028;-79
2022/05/25 03:25:50;;;;;;;8.10;7.40;;;;;;;15.96;77.97;100133.70;108749;1272;21988;-79
2022/05/25 03:28:19;;;;;;;8.00;7.20;;;;;;;15.97;77.97;100136.64;108260;1273;22095;-79
2022/05/25 03:30:49;;;;;;;9.50;8.60;;;;;;;15.97;77.82;100136.28;108137;1276;21988;-78
2022/05/25 03:33:18;;;;;;;9.70;8.80;;;;;;;15.98;77.80;100134.64;108427;1273;22768;-79
2022/05/25 03:35:47;;;;;;;15.00;10.40;;;;;;;16.00;77.93;100131.19;108716;1273;22782;-78
2022/05/25 03:38:16;;;;;;;8.80;8.00;;;;;;;16.02;77.86;100137.74;108268;1279;23731;-78
2022/05/25 03:40:50;;;;;;;8.20;7.40;;;;;;;16.03;77.95;100142.95;108348;1279;23126;-79
2022/05/25 03:43:56;;;;;;;9.70;7.80;;;;;;;16.03;77.84;100139.17;108426;1279;22033;-79
2022/05/25 03:47:06;;;;;;;9.10;8.20;;;;;;;16.06;77.83;100134.24;108397;1279;23619;-79
2022/05/25 03:53:03;;;;;;;;;;;;;;;;;;;;;
2022/05/25 03:56:05;;;;;;;9.20;8.50;;;;;;;16.13;77.55;100126.85;108488;1276;22891;-77
2022/05/25 03:58:51;;;;;;;8.90;7.40;;;;;;;16.13;77.42;100125.70;108425;1276;22018;-77
2022/05/25 04:01:23;;;;;;;8.50;7.70;;;;;;;16.16;77.39;100128.85;108466;1275;23712;-77
2022/05/25 04:03:55;;;;;;;8.40;7.60;;;;;;;16.20;77.32;100134.70;108782;1270;21978;-77
2022/05/25 04:06:36;;;;;;;9.50;8.50;;;;;;;16.25;77.29;100143.34;108825;1270;23724;-77
2022/05/25 04:09:10;;;;;;;9.20;8.20;;;;;;;16.28;77.21;100145.58;108804;1270;22756;-76
2022/05/25 04:11:47;;;;;;;10.30;8.00;;;;;;;16.31;76.89;100141.97;108881;1270;24308;-77
2022/05/25 04:14:26;;;;;;;9.40;8.50;;;;;;;16.31;76.86;100141.80;108794;1270;23052;-77
2022/05/25 04:17:19;;;;;;;8.90;7.80;;;;;;;16.33;76.66;100143.15;108109;1280;22795;-77
2022/05/25 04:19:58;;;;;;;9.20;8.30;;;;;;;16.36;76.66;100140.23;107658;1287;22002;-77
2022/05/25 04:22:46;;;;;;;13.20;8.90;;;;;;;16.38;76.63;100137.06;107684;1286;22340;-78
2022/05/25 04:25:33;;;;;;;9.10;8.30;;;;;;;16.41;76.52;100138.27;107782;1287;23068;-81
2022/05/25 04:28:09;;;;;;;11.90;8.30;;;;;;;16.44;76.46;100129.94;107988;1280;22013;-77
2022/05/25 04:30:39;;;;;;;10.20;7.20;;;;;;;16.50;76.44;100128.89;107596;1287;22405;-77
2022/05/25 04:33:16;;;;;;;8.70;7.30;;;;;;;16.54;76.28;100131.87;107622;1287;22017;-77
2022/05/25 04:35:53;;;;;;;10.80;8.70;;;;;;;16.58;76.00;100135.83;108108;1279;21995;-77
2022/05/25 04:38:33;;;;;;;10.20;8.60;;;;;;;16.59;75.68;100137.39;108563;1273;24125;-76
2022/05/25 04:41:03;;;;;;;10.90;7.50;;;;;;;16.61;75.39;100134.34;108695;1272;23660;-77
2022/05/25 04:43:33;;;;;;;7.70;7.10;;;;;;;16.63;75.15;100131.75;108650;1273;21989;-77
2022/05/25 04:46:08;;;;;;;11.20;7.30;;;;;;;16.64;74.90;100136.13;108705;1273;21989;-77
2022/05/25 04:48:38;;;;;;;8.20;7.30;;;;;;;16.66;74.78;100138.95;108853;1264;23087;-76
2022/05/25 04:51:07;;;;;;;7.80;7.10;;;;;;;16.67;74.75;100142.39;109146;1265;21985;-77
2022/05/25 04:53:37;;;;;;;20.20;9.20;;;;;;;16.70;74.60;100145.94;108657;1272;22064;-76
2022/05/25 04:58:55;;;;;;;11.10;7.10;;;;;;;16.72;74.26;100147.91;108786;1273;24441;-77
2022/05/25 05:01:30;;;;;;;7.60;6.90;;;;;;;16.73;74.12;100152.74;108840;1272;23077;-76
2022/05/25 05:04:04;;;;;;;;;;;;;;;16.75;74.07;100156.54;108549;1273;22009;-77
2022/05/25 05:06:33;;;;;;;13.10;9.20;;;;;;;16.70;74.32;100156.13;108473;1276;24378;-76
2022/05/25 05:09:08;;;;;;;7.40;6.70;;;;;;;16.72;74.16;100159.27;108443;1276;22011;-77
2022/05/25 05:11:44;;;;;;;9.70;7.10;;;;;;;16.76;73.88;100162.48;108451;1276;21981;-77
2022/05/25 05:14:14;;;;;;;7.60;7.00;;;;;;;16.78;73.49;100164.28;108526;1276;23724;-78
2022/05/25 05:17:02;;;;;;;9.80;7.20;;;;;;;16.79;73.32;100170.30;108409;1276;22871;-77
2022/05/25 05:19:58;;;;;;;11.10;7.30;;;;;;;16.81;73.35;100173.86;108415;1276;23617;-77
2022/05/25 05:22:28;;;;;;;12.10;7.40;;;;;;;16.83;73.25;100178.95;108375;1276;21988;-76
2022/05/25 05:24:58;;;;;;;8.30;7.00;;;;;;;16.85;73.36;100182.72;108556;1270;21985;-77
2022/05/25 05:27:28;;;;;;;8.10;6.50;;;;;;;16.85;73.17;100186.84;108866;1270;25011;-76
2022/05/25 05:30:03;;;;;;;8.60;7.70;;;;;;;16.84;72.99;100189.83;108631;1270;22093;-76
2022/05/25 05:32:33;;;;;;;6.40;5.90;;;;;;;16.84;72.89;100194.99;108634;1273;23217;-76
2022/05/25 05:35:03;;;;;;;7.10;6.40;;;;;;;16.83;72.79;100200.74;108650;1270;23056;-77
2022/05/25 05:37:45;;;;;;;8.90;7.10;;;;;;;16.83;72.76;100205.39;108938;1270;22997;-76
2022/05/25 05:40:18;;;;;;;10.00;7.50;;;;;;;16.83;72.70;100207.14;108840;1271;22922;-78
2022/05/25 05:42:51;;;;;;;9.30;7.50;;;;;;;16.85;72.76;100209.73;108704;1273;22832;-76
2022/05/25 05:45:29;;;;;;;9.20;8.30;;;;;;;16.87;72.61;100211.94;108934;1270;22752;-77
2022/05/25 05:48:08;;;;;;;14.10;12.90;;;;;;;16.87;72.42;100213.89;108902;1267;23049;-81
2022/05/25 05:50:40;;;;;;;13.30;12.20;;;;;;;16.87;72.30;100215.88;108827;1267;22770;-76
2022/05/25 05:53:11;;;;;;;25.10;23.00;;;;;;;16.89;72.32;100216.80;109059;1264;21981;-76
2022/05/25 05:55:44;;;;;;;27.90;25.60;;;;;;;16.92;72.27;100219.46;108820;1273;23061;-76
2022/05/25 05:58:13;;;;;;;21.30;19.50;;;;;;;16.92;72.35;100226.56;108712;1273;23717;-78
2022/05/25 06:00:42;;;;;;;13.10;11.80;;;;;;;16.92;72.21;100229.02;108740;1273;21998;-77
2022/05/25 06:03:13;;;;;;;8.70;8.00;;;;;;;16.90;71.92;100231.67;108621;1273;23093;-76
2022/05/25 06:05:45;;;;;;;9.20;7.60;;;;;;;16.87;71.83;100228.48;108506;1273;22206;-78
2022/05/25 06:08:21;;;;;;;9.40;8.10;;;;;;;16.82;71.68;100236.09;108628;1273;21986;-76
2022/05/25 06:10:58;;;;;;;7.70;6.90;;;;;;;16.77;71.70;100237.83;108133;1278;24084;-83
2022/05/25 06:13:30;;;;;;;7.80;7.10;;;;;;;16.72;71.82;100237.24;108054;1277;22592;-78
2022/05/25 06:21:41;;;;;;;8.80;8.00;;;;;;;16.65;72.25;100239.60;108056;1282;21996;-76
2022/05/25 06:24:19;;;;;;;9.80;7.90;;;;;;;16.64;72.30;100243.02;108050;1282;22044;-77
2022/05/25 06:27:00;;;;;;;8.60;7.80;;;;;;;16.63;72.37;100247.28;107874;1282;22024;-78
2022/05/25 06:29:29;;;;;;;10.10;9.20;;;;;;;16.62;72.45;100253.35;108238;1276;22465;-76
2022/05/25 06:31:59;;;;;;;9.50;8.60;;;;;;;16.63;72.54;100255.41;108602;1271;22998;-77
2022/05/25 06:34:29;;;;;;;8.60;7.90;;;;;;;16.64;72.61;100257.30;108428;1276;24373;-76
2022/05/25 06:36:59;;;;;;;8.30;7.60;;;;;;;16.63;72.47;100260.79;108465;1276;22763;-77
2022/05/25 06:39:29;;;;;;;8.80;8.00;;;;;;;16.62;72.42;100267.07;108206;1276;22582;-76
2022/05/25 06:41:59;;;;;;;10.50;9.30;;;;;;;16.62;72.39;100273.02;108440;1275;22444;-75
2022/05/25 06:44:45;;;;;;;12.70;11.40;;;;;;;16.61;72.42;100276.14;108100;1279;22017;-79
2022/05/25 06:47:30;;;;;;;10.50;9.60;;;;;;;16.58;72.28;100283.44;108255;1279;24593;-77
2022/05/25 06:50:00;;;;;;;9.70;8.40;;;;;;;16.55;72.58;100287.34;108211;1279;21997;-77
2022/05/25 06:52:30;;;;;;;9.20;7.70;;;;;;;16.57;72.85;100290.95;108290;1279;22103;-77
2022/05/25 06:55:00;;;;;;;9.60;8.70;;;;;;;16.57;72.80;100301.70;108253;1279;22658;-77
2022/05/25 06:57:34;;;;;;;11.60;9.40;;;;;;;16.57;72.90;100304.58;108215;1279;23743;-76
2022/05/25 07:00:05;;;;;;;11.80;10.70;;;;;;;16.57;72.83;100306.38;108128;1276;23721;-77
2022/05/25 07:02:35;;;;;;;18.00;16.20;;;;;;;16.56;72.82;100313.52;108534;1270;23786;-78
2022/05/25 07:05:06;;;;;;;44.80;40.30;;;;;;;16.50;72.62;100318.70;108737;1270;23442;-76
2022/05/25 07:07:38;;;;;;;47.70;42.80;;;;;;;16.42;72.37;100319.61;108755;1270;22271;-77
2022/05/25 07:10:10;;;;;;;41.80;37.70;;;;;;;16.37;72.46;100321.17;108819;1270;23727;-77
2022/05/25 07:12:41;;;;;;;36.60;33.30;;;;;;;16.34;72.53;100324.05;108679;1270;22056;-76
2022/05/25 07:15:13;;;;;;;33.50;30.20;;;;;;;16.32;72.70;100329.27;108707;1270;22537;-76
2022/05/25 07:17:42;;;;;;;26.20;23.60;;;;;;;16.33;72.98;100336.60;108741;1270;22005;-76
2022/05/25 07:20:12;;;;;;;19.30;17.50;;;;;;;16.34;73.04;100339.50;108129;1276;303991;-78
2022/05/25 07:22:41;;;;;;;15.60;14.10;;;;;;;16.35;73.19;100343.11;108396;1276;23027;-77
2022/05/25 07:25:13;;;;;;;;;;;;;;;16.34;72.98;100348.37;108218;1276;21979;-76
2022/05/25 07:27:42;;;;;;;17.20;15.00;;;;;;;16.23;73.14;100346.20;108095;1279;22002;-77
2022/05/25 07:30:16;;;;;;;20.90;18.80;;;;;;;16.17;73.17;100344.67;108253;1279;22008;-77
2022/05/25 07:32:50;;;;;;;24.40;21.90;;;;;;;16.15;73.03;100350.09;108326;1279;23078;-76
2022/05/25 07:35:19;;;;;;;;;;;;;;;16.15;73.06;100353.00;108258;1279;21972;-75
2022/05/25 07:37:54;;;;;;;17.50;15.30;;;;;;;16.10;73.40;100359.23;108275;1279;21997;-76
2022/05/25 07:40:31;;;;;;;16.00;12.80;;;;;;;16.11;73.45;100360.22;108116;1279;22013;-77
2022/05/25 07:43:11;;;;;;;12.00;10.30;;;;;;;16.12;73.33;100360.39;108271;1274;23089;-76
2022/05/25 07:45:41;;;;;;;9.70;8.90;;;;;;;16.17;73.45;100365.66;108394;1276;21986;-77
2022/05/25 07:48:11;;;;;;;10.40;9.50;;;;;;;16.22;73.48;100365.42;108198;1276;22295;-77
2022/05/25 07:50:43;;;;;;;8.60;7.10;;;;;;;16.22;73.16;100364.85;108389;1276;23764;-77
2022/05/25 07:56:05;;;;;;;6.90;4.30;;;;;;;16.09;72.21;100364.14;108387;1276;21990;-77
2022/05/25 07:58:35;;;;;;;7.50;5.20;;;;;;;16.05;71.93;100367.78;108442;1276;23813;-77
2022/05/25 08:01:15;;;;;;;8.50;5.70;;;;;;;16.03;71.55;100371.77;108048;1280;23601;-77
2022/05/25 08:06:35;;;;;;;5.30;4.80;;;;;;;16.09;71.47;100381.36;108462;1273;22786;-75
2022/05/25 08:09:04;;;;;;;5.10;4.60;;;;;;;16.11;71.09;100383.61;108495;1273;21981;-76
2022/05/25 08:11:34;;;;;;;6.00;4.90;;;;;;;16.13;71.01;100382.14;108044;1282;22000;-75
2022/05/25 08:14:06;;;;;;;6.30;3.90;;;;;;;16.15;70.81;100379.23;108028;1282;22469;-76
2022/05/25 08:16:35;;;;;;;4.60;4.00;;;;;;;16.15;70.70;100382.60;107908;1280;22009;-76
2022/05/25 08:19:05;;;;;;;4.90;4.40;;;;;;;16.14;70.33;100385.35;107727;1282;22004;-77
2022/05/25 08:21:35;;;;;;;5.00;4.10;;;;;;;16.11;69.73;100384.68;108274;1276;21982;-76
2022/05/25 08:24:20;;;;;;;5.30;3.50;;;;;;;16.08;69.53;100383.73;108255;1276;22542;-76
2022/05/25 08:26:50;;;;;;;4.50;3.20;;;;;;;16.04;69.16;100385.86;108390;1276;22277;-76
2022/05/25 08:29:20;;;;;;;5.40;3.40;;;;;;;15.95;68.35;100386.02;108583;1270;22213;-75
2022/05/25 08:32:00;;;;;;;4.80;4.40;;;;;;;15.90;68.27;100387.23;108379;1276;23601;-76
2022/05/25 08:34:29;;;;;;;7.20;5.50;;;;;;;15.92;68.57;100388.10;108484;1276;22008;-76
2022/05/25 08:37:02;;;;;;;7.70;5.60;;;;;;;15.95;68.69;100383.02;108261;1279;22011;-75
2022/05/25 08:39:32;;;;;;;14.90;6.80;;;;;;;15.96;68.54;100383.20;108256;1279;22011;-76
2022/05/25 08:42:08;;;;;;;5.10;3.80;;;;;;;15.96;68.34;100379.21;108084;1279;21995;-75
2022/05/25 08:44:41;;;;;;;5.70;4.60;;;;;;;15.94;68.59;100377.56;108389;1273;22223;-76
2022/05/25 08:47:12;;;;;;;7.30;5.10;;;;;;;15.94;68.77;100380.04;108398;1276;23074;-75
2022/05/25 08:49:49;;;;;;;6.70;6.00;;;;;;;15.94;68.55;100380.20;108510;1270;21984;-77
2022/05/25 08:52:39;;;;;;;6.40;5.20;;;;;;;15.96;68.92;100385.02;108527;1274;21990;-75
2022/05/25 08:55:17;;;;;;;8.90;5.00;;;;;;;16.02;69.11;100386.67;108584;1270;21995;-75
2022/05/25 08:57:54;;;;;;;5.90;5.00;;;;;;;16.06;69.15;100386.65;108681;1271;22927;-76
2022/05/25 09:00:23;;;;;;;5.90;5.00;;;;;;;16.04;69.19;100392.98;108464;1276;23709;-76
2022/05/25 09:03:47;;;;;;;6.10;5.50;;;;;;;16.04;69.49;100397.30;108410;1276;22000;-76
2022/05/25 09:06:53;;;;;;;8.20;5.70;;;;;;;16.08;69.68;100408.17;108413;1276;23058;-76
2022/05/25 09:09:45;;;;;;;5.70;5.20;;;;;;;16.07;69.66;100413.66;108453;1276;22737;-75
2022/05/25 09:12:35;;;;;;;7.10;6.40;;;;;;;16.10;69.79;100416.20;108680;1270;22035;-77
2022/05/25 09:15:23;;;;;;;7.20;6.60;;;;;;;16.12;69.68;100414.73;108672;1270;23122;-75
2022/05/25 09:18:17;;;;;;;8.20;7.50;;;;;;;16.13;69.62;100419.61;108757;1265;21994;-76
2022/05/25 09:20:50;;;;;;;9.30;8.40;;;;;;;16.13;69.62;100421.21;108982;1265;21976;-76
2022/05/25 09:23:22;;;;;;;10.20;8.40;;;;;;;16.13;69.78;100419.29;108713;1271;23172;-75
2022/05/25 09:26:03;;;;;;;9.10;8.20;;;;;;;16.17;70.18;100420.98;108552;1270;22313;-76
2022/05/25 09:28:38;;;;;;;9.40;8.50;;;;;;;16.27;70.44;100423.33;108741;1273;23769;-76
2022/05/25 09:31:08;;;;;;;8.80;7.90;;;;;;;16.35;70.57;100424.33;108325;1275;22094;-76
2022/05/25 09:33:56;;;;;;;10.00;8.80;;;;;;;16.50;71.13;100428.61;108149;1276;23671;-76
2022/05/25 09:36:39;;;;;;;7.90;7.10;;;;;;;16.70;71.39;100424.96;108373;1276;23609;-76
2022/05/25 09:39:30;;;;;;;7.30;6.50;;;;;;;16.85;71.00;100419.84;108399;1276;22012;-76
2022/05/25 09:42:04;;;;;;;6.60;5.80;;;;;;;16.92;70.15;100416.29;108603;1271;23697;-76
2022/05/25 09:44:34;;;;;;;6.50;5.60;;;;;;;17.02;70.02;100417.18;108712;1270;23066;-77
2022/05/25 09:47:16;;;;;;;5.90;5.20;;;;;;;17.10;69.09;100419.13;108485;1275;23789;-76
2022/05/25 09:49:49;;;;;;;6.40;5.80;;;;;;;17.11;68.57;100418.89;108593;1270;22177;-76
2022/05/25 09:53:04;;;;;;;5.70;5.10;;;;;;;17.16;68.54;100417.86;108704;1270;22766;-76
2022/05/25 09:56:06;;;;;;;5.40;4.50;;;;;;;17.15;67.64;100418.27;108892;1270;21995;-75
2022/05/25 09:59:01;;;;;;;6.70;5.80;;;;;;;17.09;67.08;100415.16;108904;1269;22048;-76
2022/05/25 10:01:55;;;;;;;5.80;5.30;;;;;;;17.08;67.06;100414.71;108651;1273;23471;-76
2022/05/25 10:05:36;;;;;;;6.10;4.90;;;;;;;17.07;66.93;100416.40;108811;1268;23083;-76
2022/05/25 10:08:36;;;;;;;7.50;5.20;;;;;;;17.08;66.78;100413.73;109093;1268;23036;-75
2022/05/25 10:11:28;;;;;;;8.80;4.90;;;;;;;17.04;66.35;100412.14;108485;1273;23702;-75
2022/05/25 10:15:34;;;;;;;5.60;4.40;;;;;;;16.96;66.07;100411.36;108495;1273;22068;-76
2022/05/25 10:18:17;;;;;;;6.70;5.70;;;;;;;16.91;66.50;100412.36;108331;1282;22821;-75
2022/05/25 10:21:23;;;;;;;4.70;4.20;;;;;;;16.96;66.87;100409.98;108014;1284;22065;-75
2022/05/25 10:24:57;;;;;;;7.90;5.40;;;;;;;17.01;66.76;100408.94;107555;1288;22775;-76
2022/05/25 10:28:07;;;;;;;4.70;4.30;;;;;;;17.11;66.74;100404.39;107053;1292;23667;-75
2022/05/25 10:37:39;;;;;;;4.50;3.80;;;;;;;17.49;66.66;100395.90;107472;1290;23154;-76
2022/05/25 10:40:09;;;;;;;4.10;3.70;;;;;;;17.51;65.87;100391.25;107633;1285;23091;-76
2022/05/25 10:42:43;;;;;;;4.90;4.00;;;;;;;17.56;65.54;100392.86;108085;1282;21987;-76
2022/05/25 10:45:33;;;;;;;6.20;4.50;;;;;;;17.67;65.66;100395.94;108316;1279;21964;-75
2022/05/25 10:49:03;;;;;;;5.40;4.00;;;;;;;17.86;65.52;100391.00;108099;1279;24311;-76
2022/05/25 10:51:54;;;;;;;5.20;4.70;;;;;;;17.95;64.12;100387.21;108091;1282;23118;-76
2022/05/25 10:54:45;;;;;;;5.20;4.60;;;;;;;17.95;63.51;100388.90;108446;1273;22476;-75
2022/05/25 10:57:39;;;;;;;5.50;5.00;;;;;;;17.98;63.13;100386.83;108730;1273;22108;-76
2022/05/25 11:00:34;;;;;;;6.90;5.40;;;;;;;17.97;62.75;100386.42;108712;1273;21987;-77
2022/05/25 11:03:31;;;;;;;8.10;5.20;;;;;;;17.88;62.41;100386.02;108807;1264;21986;-75
2022/05/25 11:06:30;;;;;;;7.10;4.90;;;;;;;17.83;62.33;100388.23;109537;1264;23065;-75
2022/05/25 11:09:38;;;;;;;8.40;6.40;;;;;;;17.75;62.06;100394.34;109237;1264;21974;-76
2022/05/25 11:12:37;;;;;;;4.90;4.40;;;;;;;17.69;62.09;100393.66;109568;1264;23579;-75
2022/05/25 11:20:12;;;;;;;5.80;3.50;;;;;;;17.77;62.38;100423.37;108790;1273;22766;-76
2022/05/25 11:23:32;;;;;;;5.10;3.00;;;;;;;17.81;62.24;100418.33;108800;1270;21982;-76
2022/05/25 11:26:44;;;;;;;5.70;3.50;;;;;;;17.85;62.06;100419.27;108899;1268;23796;-76
2022/05/25 11:29:42;;;;;;;5.20;3.30;;;;;;;17.90;62.01;100418.00;108924;1267;23714;-74
2022/05/25 11:32:37;;;;;;;4.30;3.90;;;;;;;17.92;61.91;100405.45;109062;1268;22378;-76
2022/05/25 11:35:13;;;;;;;5.70;3.80;;;;;;;17.96;61.83;100397.00;108812;1267;24565;-75
2022/05/25 11:38:25;;;;;;;4.50;4.00;;;;;;;18.02;61.73;100385.61;108865;1268;24285;-76
2022/05/25 11:41:25;;;;;;;6.30;4.00;;;;;;;18.06;61.17;100373.61;109028;1264;22019;-76
2022/05/25 11:44:06;;;;;;;6.00;5.10;;;;;;;18.08;61.05;100362.20;109140;1267;23691;-77
2022/05/25 11:46:47;;;;;;;;;;;;;;;18.07;60.61;100364.96;109275;1265;21965;-76
2022/05/25 11:49:57;;;;;;;10.90;9.50;;;;;;;17.92;60.19;100368.12;109500;1265;23076;-77
2022/05/25 11:52:38;;;;;;;6.20;5.60;;;;;;;17.78;60.25;100372.80;109595;1264;21978;-76
2022/05/25 11:55:34;;;;;;;9.50;5.60;;;;;;;17.73;60.73;100380.00;109544;1263;22760;-77
2022/05/25 11:58:18;;;;;;;7.10;5.80;;;;;;;17.76;61.27;100377.77;109019;1267;22028;-77
2022/05/25 12:01:13;;;;;;;7.10;5.40;;;;;;;17.79;61.14;100375.18;109286;1266;22435;-77
2022/05/25 12:04:42;;;;;;;7.60;5.30;;;;;;;17.84;61.08;100378.20;109354;1264;24308;-77
2022/05/25 12:08:08;;;;;;;5.30;4.10;;;;;;;17.90;60.70;100388.20;109389;1264;23477;-77
2022/05/25 12:10:44;;;;;;;7.90;5.50;;;;;;;18.04;61.05;100388.67;109245;1264;23608;-76
2022/05/25 12:13:33;;;;;;;6.00;3.70;;;;;;;18.23;61.14;100379.21;108969;1267;23016;-77
2022/05/25 12:16:07;;;;;;;5.70;4.20;;;;;;;18.37;60.34;100378.85;109255;1267;22108;-77
2022/05/25 12:19:17;;;;;;;;;;;;;;;;;;;;;
2022/05/25 12:22:34;;;;;;;6.40;4.00;;;;;;;18.56;60.29;100384.16;109320;1267;23291;-76
2022/05/25 12:25:49;;;;;;;4.40;3.30;;;;;;;18.71;60.57;100384.46;109311;1264;23652;-77
2022/05/25 12:28:52;;;;;;;3.50;3.00;;;;;;;18.95;60.43;100387.70;109190;1264;22052;-75
2022/05/25 12:32:06;;;;;;;4.50;4.10;;;;;;;19.13;58.87;100396.12;109453;1264;23612;-76
2022/05/25 12:35:37;;;;;;;5.00;4.40;;;;;;;19.26;58.44;100402.44;109540;1264;21985;-76
2022/05/25 12:39:38;;;;;;;3.70;3.20;;;;;;;19.31;57.93;100418.16;108654;1273;21999;-77
2022/05/25 12:43:12;;;;;;;4.70;3.20;;;;;;;19.26;57.40;100419.98;108012;1281;23853;-77
2022/05/25 12:49:33;;;;;;;4.10;3.70;;;;;;;19.15;57.04;100405.23;108106;1280;23697;-77
2022/05/25 12:52:48;;;;;;;6.50;4.30;;;;;;;19.12;57.38;100403.34;107997;1283;21997;-78
2022/05/25 12:55:57;;;;;;;8.00;4.40;;;;;;;19.15;57.56;100398.52;107922;1285;23879;-77
2022/05/25 12:58:50;;;;;;;5.60;4.40;;;;;;;19.12;57.48;100399.30;108818;1270;22430;-76
2022/05/25 13:01:55;;;;;;;8.60;4.40;;;;;;;19.10;57.69;100400.59;109437;1264;22091;-77
2022/05/25 13:04:49;;;;;;;6.60;5.80;;;;;;;19.08;58.09;100400.16;109606;1264;22012;-77